• Join FlightAware (Why Join?)
  • Login
  • US Flag 
09:00PM EDT


 

Airport Tracker/Info


-or-


 

Live Flight TrackerFlight Track Log ✈ SWA1910 ✈ 09-Apr-2013 ✈ KFLL - KBUF

Flight Track Log - Related Links

Times and Time Zones

All times are in EDT time to prevent confusion due to time zone crossing. See the SWA1910 flight status page for this flight to view local times or setup timezone preferences in your user account.

Time Position Orientation Groundspeed Altitude Reporting Facility
EDT Latitude Longitude Course Direction KTS MPH feet Rate Location/Type
02:05PM 26.0750 -80.1367 86° East 153 176 900  Level Miami Center
02:07PM 26.0783 -80.0767 86° East 207 238 2,900 1,800 Climbing Miami Center
02:08PM 26.1050 -80.0103 66° East 271 312 4,800 2,400 Climbing Miami Center
02:09PM 26.1442 -79.9281 62° Northeast 284 327 7,900 2,760 Climbing Miami Center
02:09PM 26.1728 -79.8661 63° Northeast 329 379 10,000 1,980 Climbing Miami Center
02:10PM 26.2119 -79.7792 63° Northeast 316 364 11,700 2,160 Climbing Miami Center
02:11PM 26.2661 -79.6878 57° Northeast 327 376 14,400 2,880 Climbing Miami Center
02:12PM 26.3225 -79.5803 60° Northeast 360 414 17,500 2,700 Climbing Miami Center
02:13PM 26.3844 -79.5028 48° Northeast 372 428 19,800 2,280 Climbing Miami Center
02:14PM 26.4983 -79.4381 27° Northeast 377 434 22,100 2,100 Climbing Miami Center
02:15PM 26.6039 -79.3822 25° Northeast 404 465 24,100 1,980 Climbing Miami Center
02:16PM 26.7028 -79.3308 25° Northeast 426 490 26,100 1,920 Climbing Miami Center
02:17PM 26.8167 -79.2681 26° Northeast 431 496 28,000 1,560 Climbing Miami Center
02:18PM 26.9325 -79.2075 25° Northeast 442 509 29,300 1,260 Climbing Miami Center
02:19PM 27.0525 -79.1472 24° Northeast 454 522 30,600 1,680 Climbing Miami Center
02:20PM 27.1686 -79.0794 27° Northeast 455 524 32,700 1,920 Climbing Miami Center
02:21PM 27.2947 -79.0117 26° Northeast 460 529 34,500 1,620 Climbing Miami Center
02:22PM 27.4125 -78.9531 24° Northeast 460 529 36,000 1,200 Climbing Miami Center
02:23PM 27.5361 -78.9294 10° North 444 511 37,000 480 Climbing Miami Center
02:24PM 27.6469 -78.9150 North 438 504 37,000 300 Level Miami Center
02:25PM 27.7664 -78.8983 North 438 504 37,700 900 Climbing Miami Center
02:26PM 27.8981 -78.8819 North 437 503 38,900 600 Climbing Miami Center
02:27PM 28.0172 -78.8653 North 431 496 38,900  Level Miami Center
02:28PM 28.1386 -78.8486 North 431 496 38,900  Level Miami Center
02:29PM 28.2578 -78.8317 North 431 496 38,900  Level Miami Center
02:30PM 28.3811 -78.8150 North 426 490 38,900  Level Miami Center
02:31PM 28.5047 -78.7983 North 426 490 38,900  Level Miami Center
02:32PM 28.6197 -78.7789 North 426 490 38,900  Level Miami Center
02:33PM 28.7408 -78.7644 North 426 490 38,900  Level Miami Center
02:34PM 28.8558 -78.7475 North 426 490 38,900  Level Miami Center
02:35PM 28.9731 -78.7306 North 426 490 38,900  Level Miami Center
02:36PM 29.0942 -78.7161 North 426 490 38,900  Level Miami Center
02:37PM 29.2092 -78.6967 North 426 490 38,900  Level Miami Center
02:38PM 29.3303 -78.6794 North 426 490 38,900  Level Miami Center
02:39PM 29.4536 -78.6625 North 426 490 38,900  Level Miami Center
02:40PM 29.5728 -78.6478 North 431 496 38,900  Level Miami Center
02:41PM 29.6856 -78.6233 11° North 421 484 38,900  Level Miami Center
02:42PM 29.8089 -78.6086 North 426 490 38,900  Level Miami Center
02:43PM 29.9239 -78.5914 North 435 501 38,900  Level Miami Center
02:47PM 30.3381 -78.5342 North 410 472 38,900  Level Jacksonville Center
02:48PM 30.4564 -78.5167 North 436 502 38,900  Level Jacksonville Center
02:49PM 30.5792 -78.4992 North 442 509 38,900  Level Jacksonville Center
02:50PM 30.6931 -78.4792 North 435 501 38,900  Level Jacksonville Center
02:51PM 30.8114 -78.4567 North 432 497 38,900  Level Jacksonville Center
02:52PM 30.9361 -78.4389 North 435 501 38,900  Level Jacksonville Center
02:53PM 31.0583 -78.4186 North 445 512 38,900  Level Jacksonville Center
02:54PM 31.1789 -78.3983 North 440 506 38,900  Level Jacksonville Center
02:55PM 31.2950 -78.3781 North 429 494 38,900  Level Jacksonville Center
02:56PM 31.4172 -78.3550 North 429 494 38,900  Level Jacksonville Center
02:57PM 31.5358 -78.3397 North 429 494 38,900  Level Jacksonville Center
02:58PM 31.6581 -78.3189 North 428 493 38,900  Level Jacksonville Center
02:59PM 31.7744 -78.3036 North 429 494 38,900  Level Jacksonville Center
03:00PM 31.8967 -78.2803 North 429 494 38,900  Level Jacksonville Center
03:01PM 32.0150 -78.2619 North 429 494 38,900  Level Jacksonville Center
03:02PM 32.1353 -78.2414 North 429 494 38,900  Level Jacksonville Center
03:03PM 32.2431 -78.2136 12° North 429 494 38,900  Level Jacksonville Center
03:04PM 32.3636 -78.2003 North 429 494 38,900  Level Jacksonville Center
03:05PM 32.4817 -78.1792 North 429 494 38,900  Level Jacksonville Center
03:06PM 32.6000 -78.1633 North 424 488 38,900  Level Jacksonville Center
03:07PM 32.7183 -78.1447 North 424 488 38,900  Level Jacksonville Center
03:08PM 32.8342 -78.1214 10° North 424 488 38,900  Level Jacksonville Center
03:09PM 32.9547 -78.1075 North 424 488 38,900  Level Jacksonville Center
03:10PM 33.0731 -78.0864 North 424 488 38,900  Level Jacksonville Center
03:11PM 33.1911 -78.0650 North 424 488 38,900  Level Jacksonville Center
03:12PM 33.3114 -78.0461 North 424 488 38,900  Level Jacksonville Center
03:13PM 33.4297 -78.0272 North 424 488 38,900  Level Jacksonville Center
03:13PM 33.4608 -78.0236 North 437 503 38,900  Level Washington Center
03:14PM 33.5800 -78.0044 North 442 509 38,900  Level Washington Center
03:15PM 33.6994 -77.9856 North 442 509 38,900  Level Washington Center
03:16PM 33.8186 -77.9639 North 442 509 38,900  Level Washington Center
03:17PM 33.9422 -77.9450 North 434 499 39,000  Climbing Washington Center
03:18PM 34.0594 -77.9231 North 434 499 39,000  Level Washington Center
03:19PM 34.1789 -77.9014 North 429 494 39,000 -60 Level Washington Center
03:20PM 34.3147 -77.8825 North 435 501 38,900 -60 Descending Washington Center
03:21PM 34.4339 -77.8758 North 435 501 38,900  Level Washington Center
03:22PM 34.5506 -77.8742 North 428 493 38,900  Level Washington Center
03:23PM 34.6694 -77.8750 360° North 423 487 38,900  Level Washington Center
03:24PM 34.7844 -77.8706 North 423 487 38,900  Level Washington Center
03:25PM 34.9014 -77.8661 North 423 487 39,000  Climbing Washington Center
03:26PM 35.0203 -77.8644 North 423 487 39,000  Level Washington Center
03:27PM 35.1350 -77.8625 North 423 487 39,000  Level Washington Center
03:28PM 35.2519 -77.8583 North 423 487 39,000  Level Washington Center
03:29PM 35.3708 -77.8592 360° North 423 487 39,000  Level Washington Center
03:30PM 35.4878 -77.8572 North 423 487 39,000  Level Washington Center
03:31PM 35.6067 -77.8556 North 423 487 39,000  Level Washington Center
03:32PM 35.7258 -77.8539 North 423 487 39,000  Level Washington Center
03:33PM 35.8447 -77.8547 360° North 423 487 39,000  Level Washington Center
03:34PM 35.9636 -77.8528 North 423 487 39,000  Level Washington Center
03:35PM 36.0825 -77.8511 North 423 487 39,000  Level Washington Center
03:36PM 36.2036 -77.8469 North 423 487 39,000  Level Washington Center
03:37PM 36.3228 -77.8453 North 423 487 39,000  Level Washington Center
03:38PM 36.4375 -77.8483 359° North 418 481 39,000  Level Washington Center
03:39PM 36.5564 -77.8442 North 418 481 39,000  Level Washington Center
03:40PM 36.6753 -77.8450 360° North 418 481 39,000  Level Washington Center
03:41PM 36.7942 -77.8433 North 423 487 39,000  Level Washington Center
03:42PM 36.9133 -77.8389 North 423 487 39,000  Level Washington Center
03:43PM 37.0300 -77.8397 360° North 423 487 39,000  Level Washington Center
03:44PM 37.1511 -77.8356 North 423 487 39,000  Level Washington Center
03:45PM 37.2681 -77.8336 North 423 487 39,000  Level Washington Center
03:46PM 37.3847 -77.8344 360° North 423 487 39,000  Level Washington Center
03:47PM 37.5036 -77.8300 North 423 487 39,000  Level Washington Center
03:48PM 37.6158 -77.8544 350° North 418 481 39,000  Level Washington Center
03:49PM 37.7281 -77.8839 348° North 413 475 39,000  Level Washington Center
03:50PM 37.8400 -77.9164 347° North 408 470 39,000  Level Washington Center
03:51PM 37.9519 -77.9461 348° North 408 470 39,000  Level Washington Center
03:52PM 38.0661 -77.9761 348° North 413 475 39,000  Level Washington Center
03:53PM 38.1697 -78.0058 347° North 413 475 39,000  Level Washington Center
03:54PM 38.2942 -78.0414 347° North 413 475 39,000  Level Washington Center
03:55PM 38.3958 -78.0714 347° North 413 475 39,000  Level Washington Center
03:56PM 38.5161 -78.1072 347° North 413 475 39,000  Level Washington Center
03:57PM 38.6175 -78.1372 347° North 408 470 39,000  Level Washington Center
03:58PM 38.7397 -78.1733 347° North 414 476 39,000  Level Washington Center
03:59PM 38.8494 -78.2067 347° North 409 471 39,000  Level Washington Center
04:00PM 38.9556 -78.2183 355° North 414 476 39,000  Level Washington Center
04:01PM 39.0803 -78.2308 356° North 409 471 39,000  Level Washington Center
04:03PM 39.2803 -78.2528 355° North 419 482 39,000  Level Cleveland Center
04:04PM 39.3953 -78.2622 356° North 424 488 39,000  Level Cleveland Center
04:05PM 39.5142 -78.2772 354° North 424 488 39,000  Level Cleveland Center
04:06PM 39.6292 -78.2867 356° North 424 488 39,000 -60 Level Cleveland Center
04:07PM 39.7628 -78.3011 355° North 424 488 38,900 -600 Descending Cleveland Center
04:08PM 39.8797 -78.3133 355° North 424 488 37,900 -960 Descending Cleveland Center
04:09PM 40.0031 -78.3281 355° North 424 488 37,000 -480 Descending Cleveland Center
04:10PM 40.1264 -78.3375 357° North 430 495 37,000  Level Cleveland Center
04:11PM 40.2433 -78.3528 354° North 430 495 37,000 -300 Level Cleveland Center
04:12PM 40.3603 -78.3650 355° North 425 489 36,400 -1,740 Descending Cleveland Center
04:13PM 40.4794 -78.3775 355° North 425 489 33,600 -2,700 Descending Cleveland Center
04:14PM 40.5944 -78.3900 355° North 425 489 31,100 -1,560 Descending Cleveland Center
04:15PM 40.7072 -78.4000 356° North 420 483 30,500 -900 Descending Cleveland Center
04:16PM 40.8158 -78.4131 355° North 409 471 29,400 -1,020 Descending Cleveland Center
04:17PM 40.9244 -78.4258 355° North 402 463 28,500 -960 Descending Cleveland Center
04:18PM 41.0289 -78.4361 356° North 388 447 27,500 -1,020 Descending Cleveland Center
04:19PM 41.1311 -78.4467 356° North 370 426 26,500 -780 Descending Cleveland Center
04:20PM 41.2314 -78.4572 355° North 365 420 26,000 -300 Descending Cleveland Center
04:21PM 41.3361 -78.4703 355° North 365 420 26,000  Level Cleveland Center
04:22PM 41.4258 -78.4783 356° North 371 427 26,000 -420 Level Cleveland Center
04:23PM 41.5303 -78.4889 356° North 371 427 25,200 -900 Descending Cleveland Center
04:24PM 41.6264 -78.4997 355° North 365 420 24,200 -1,020 Descending Cleveland Center
04:25PM 41.7267 -78.5103 356° North 365 420 23,200 -1,020 Descending Cleveland Center
04:26PM 41.8247 -78.5239 354° North 359 413 22,200 -1,260 Descending Cleveland Center
04:27PM 41.9208 -78.5347 355° North 354 407 20,700 -1,800 Descending Cleveland Center
04:28PM 42.0253 -78.5428 357° North 342 394 18,700 -1,860 Descending Cleveland Center
04:29PM 42.1131 -78.5539 355° North 335 386 17,000 -1,620 Descending Cleveland Center
04:30PM 42.1986 -78.5653 354° North 335 386 15,500 -1,620 Descending Cleveland Center
04:31PM 42.2906 -78.5733 356° North 335 386 13,800 -1,800 Descending Cleveland Center
04:32PM 42.3825 -78.5847 355° North 335 386 11,900 -1,440 Descending Cleveland Center
04:33PM 42.4722 -78.5931 356° North 335 386 11,000 -480 Descending Cleveland Center
04:34PM 42.5558 -78.5989 357° North 321 369 11,000 -120 Level Cleveland Center
04:35PM 42.6431 -78.5819 North 310 357 10,800 -840 Descending Cleveland Center
04:36PM 42.7303 -78.5650 North 310 357 9,400 -1,680 Descending Cleveland Center
04:38PM 42.8667 -78.4667 28° Northeast 296 341 6,200 -1,620 Descending Buffalo TRACON
04:39PM 42.9500 -78.4833 352° North 258 297 5,000 -600 Descending Buffalo TRACON
04:40PM 43.0000 -78.5000 346° North 200 230 5,000 -540 Level Buffalo TRACON
04:41PM 43.0333 -78.5500 312° West 175 201 4,000 -1,020 Descending Buffalo TRACON
04:42PM 43.0333 -78.6000 270° West 134 154 3,000 -840 Descending Buffalo TRACON
04:43PM 43.0000 -78.6333 216° Southwest 130 150 2,400 -660 Descending Buffalo TRACON
04:44PM 42.9833 -78.6667 236° Southwest 134 154 1,700 -720 Descending Buffalo TRACON